sensor_id;sensor_type;location;lat;lon;timestamp;P1;durP1;ratioP1;P2;durP2;ratioP2
17662;SDS011;8950;56.892;15.090;2022-10-01T00:01:02;1.88;;;1.70;;
17662;SDS011;8950;56.892;15.090;2022-10-01T00:03:29;2.47;;;1.60;;
17662;SDS011;8950;56.892;15.090;2022-10-01T00:06:00;1.60;;;1.50;;
17662;SDS011;8950;56.892;15.090;2022-10-01T00:08:27;2.28;;;1.80;;
17662;SDS011;8950;56.892;15.090;2022-10-01T00:10:54;2.30;;;1.50;;
17662;SDS011;8950;56.892;15.090;2022-10-01T00:13:22;1.70;;;1.60;;
17662;SDS011;8950;56.892;15.090;2022-10-01T00:15:48;1.60;;;1.50;;
17662;SDS011;8950;56.892;15.090;2022-10-01T00:18:15;2.88;;;1.80;;
17662;SDS011;8950;56.892;15.090;2022-10-01T00:20:41;1.70;;;1.60;;
17662;SDS011;8950;56.892;15.090;2022-10-01T00:23:10;1.52;;;1.42;;
17662;SDS011;8950;56.892;15.090;2022-10-01T00:25:36;1.75;;;1.48;;
17662;SDS011;8950;56.892;15.090;2022-10-01T00:28:04;1.67;;;1.50;;
17662;SDS011;8950;56.892;15.090;2022-10-01T00:30:31;1.80;;;1.70;;
17662;SDS011;8950;56.892;15.090;2022-10-01T00:32:58;2.42;;;1.83;;
17662;SDS011;8950;56.892;15.090;2022-10-01T00:35:24;2.42;;;1.63;;
17662;SDS011;8950;56.892;15.090;2022-10-01T00:37:51;1.70;;;1.60;;
17662;SDS011;8950;56.892;15.090;2022-10-01T00:40:19;2.53;;;1.83;;
17662;SDS011;8950;56.892;15.090;2022-10-01T00:42:46;2.35;;;1.60;;
17662;SDS011;8950;56.892;15.090;2022-10-01T00:45:13;2.90;;;1.77;;
17662;SDS011;8950;56.892;15.090;2022-10-01T00:47:41;2.40;;;1.67;;
17662;SDS011;8950;56.892;15.090;2022-10-01T00:50:09;3.85;;;1.60;;
17662;SDS011;8950;56.892;15.090;2022-10-01T00:52:40;1.95;;;1.83;;
17662;SDS011;8950;56.892;15.090;2022-10-01T00:55:09;3.25;;;1.90;;
17662;SDS011;8950;56.892;15.090;2022-10-01T00:57:38;2.47;;;1.80;;
17662;SDS011;8950;56.892;15.090;2022-10-01T01:00:06;1.92;;;1.83;;
17662;SDS011;8950;56.892;15.090;2022-10-01T01:02:33;1.90;;;1.80;;
17662;SDS011;8950;56.892;15.090;2022-10-01T01:04:59;2.53;;;1.70;;
17662;SDS011;8950;56.892;15.090;2022-10-01T01:07:25;2.00;;;1.88;;
17662;SDS011;8950;56.892;15.090;2022-10-01T01:09:52;2.70;;;1.73;;
17662;SDS011;8950;56.892;15.090;2022-10-01T01:12:25;2.00;;;1.80;;
17662;SDS011;8950;56.892;15.090;2022-10-01T01:15:03;2.70;;;2.40;;
17662;SDS011;8950;56.892;15.090;2022-10-01T01:17:32;2.53;;;1.80;;
17662;SDS011;8950;56.892;15.090;2022-10-01T01:20:08;1.70;;;1.60;;
17662;SDS011;8950;56.892;15.090;2022-10-01T01:22:36;1.83;;;1.73;;
17662;SDS011;8950;56.892;15.090;2022-10-01T01:25:07;2.10;;;1.90;;
17662;SDS011;8950;56.892;15.090;2022-10-01T01:27:37;2.30;;;2.10;;
17662;SDS011;8950;56.892;15.090;2022-10-01T01:30:07;2.33;;;1.98;;
17662;SDS011;8950;56.892;15.090;2022-10-01T01:32:36;2.00;;;1.90;;
17662;SDS011;8950;56.892;15.090;2022-10-01T01:35:05;2.22;;;1.98;;
17662;SDS011;8950;56.892;15.090;2022-10-01T01:37:34;3.60;;;2.05;;
17662;SDS011;8950;56.892;15.090;2022-10-01T01:40:02;2.38;;;2.20;;
17662;SDS011;8950;56.892;15.090;2022-10-01T01:42:31;3.67;;;2.30;;
17662;SDS011;8950;56.892;15.090;2022-10-01T01:45:00;2.80;;;2.20;;
17662;SDS011;8950;56.892;15.090;2022-10-01T01:47:29;2.00;;;1.90;;
17662;SDS011;8950;56.892;15.090;2022-10-01T01:49:56;3.60;;;2.40;;
17662;SDS011;8950;56.892;15.090;2022-10-01T01:52:23;2.30;;;2.10;;
17662;SDS011;8950;56.892;15.090;2022-10-01T01:54:50;2.40;;;2.20;;
17662;SDS011;8950;56.892;15.090;2022-10-01T01:57:17;2.60;;;2.40;;
17662;SDS011;8950;56.892;15.090;2022-10-01T01:59:44;2.35;;;2.10;;
17662;SDS011;8950;56.892;15.090;2022-10-01T02:02:11;2.67;;;2.40;;
17662;SDS011;8950;56.892;15.090;2022-10-01T02:04:40;2.50;;;2.30;;
17662;SDS011;8950;56.892;15.090;2022-10-01T02:07:24;2.80;;;2.30;;
17662;SDS011;8950;56.892;15.090;2022-10-01T02:09:55;2.60;;;2.40;;
17662;SDS011;8950;56.892;15.090;2022-10-01T02:12:30;2.53;;;2.33;;
17662;SDS011;8950;56.892;15.090;2022-10-01T02:15:01;2.97;;;2.70;;
17662;SDS011;8950;56.892;15.090;2022-10-01T02:17:31;2.83;;;2.47;;
17662;SDS011;8950;56.892;15.090;2022-10-01T02:20:02;2.97;;;2.78;;
17662;SDS011;8950;56.892;15.090;2022-10-01T02:22:34;4.63;;;3.13;;
17662;SDS011;8950;56.892;15.090;2022-10-01T02:25:04;3.42;;;3.00;;
17662;SDS011;8950;56.892;15.090;2022-10-01T02:27:32;3.70;;;2.80;;
17662;SDS011;8950;56.892;15.090;2022-10-01T02:30:03;3.67;;;3.10;;
17662;SDS011;8950;56.892;15.090;2022-10-01T02:32:32;3.38;;;2.88;;
17662;SDS011;8950;56.892;15.090;2022-10-01T02:35:00;4.25;;;3.30;;
17662;SDS011;8950;56.892;15.090;2022-10-01T02:37:27;3.40;;;3.10;;
17662;SDS011;8950;56.892;15.090;2022-10-01T02:39:54;3.45;;;3.13;;
17662;SDS011;8950;56.892;15.090;2022-10-01T02:42:21;3.38;;;3.08;;
17662;SDS011;8950;56.892;15.090;2022-10-01T02:44:48;3.90;;;3.50;;
17662;SDS011;8950;56.892;15.090;2022-10-01T02:47:17;3.25;;;2.95;;
17662;SDS011;8950;56.892;15.090;2022-10-01T02:49:45;3.60;;;3.30;;
17662;SDS011;8950;56.892;15.090;2022-10-01T02:52:15;3.70;;;3.40;;
17662;SDS011;8950;56.892;15.090;2022-10-01T02:54:46;3.65;;;3.35;;
17662;SDS011;8950;56.892;15.090;2022-10-01T02:57:14;4.05;;;3.63;;
17662;SDS011;8950;56.892;15.090;2022-10-01T02:59:52;3.97;;;3.47;;
17662;SDS011;8950;56.892;15.090;2022-10-01T03:02:18;4.13;;;3.72;;
17662;SDS011;8950;56.892;15.090;2022-10-01T03:04:46;3.95;;;3.65;;
17662;SDS011;8950;56.892;15.090;2022-10-01T03:07:14;5.97;;;3.90;;
17662;SDS011;8950;56.892;15.090;2022-10-01T03:09:40;4.05;;;3.58;;
17662;SDS011;8950;56.892;15.090;2022-10-01T03:12:07;4.25;;;3.80;;
17662;SDS011;8950;56.892;15.090;2022-10-01T03:14:34;3.95;;;3.65;;
17662;SDS011;8950;56.892;15.090;2022-10-01T03:17:01;3.95;;;3.65;;
17662;SDS011;8950;56.892;15.090;2022-10-01T03:19:27;3.92;;;3.63;;
17662;SDS011;8950;56.892;15.090;2022-10-01T03:21:54;4.40;;;3.92;;
17662;SDS011;8950;56.892;15.090;2022-10-01T03:24:23;4.43;;;4.03;;
17662;SDS011;8950;56.892;15.090;2022-10-01T03:26:50;4.30;;;3.97;;
17662;SDS011;8950;56.892;15.090;2022-10-01T03:29:16;4.20;;;3.80;;
17662;SDS011;8950;56.892;15.090;2022-10-01T03:31:42;4.10;;;3.80;;
17662;SDS011;8950;56.892;15.090;2022-10-01T03:34:09;4.07;;;3.75;;
17662;SDS011;8950;56.892;15.090;2022-10-01T03:36:35;4.93;;;4.10;;
17662;SDS011;8950;56.892;15.090;2022-10-01T03:39:02;4.43;;;4.07;;
17662;SDS011;8950;56.892;15.090;2022-10-01T03:41:30;4.10;;;3.80;;
17662;SDS011;8950;56.892;15.090;2022-10-01T03:43:56;4.40;;;4.00;;
17662;SDS011;8950;56.892;15.090;2022-10-01T03:46:22;4.55;;;4.20;;
17662;SDS011;8950;56.892;15.090;2022-10-01T03:48:50;4.40;;;4.03;;
17662;SDS011;8950;56.892;15.090;2022-10-01T03:51:17;4.20;;;3.80;;
17662;SDS011;8950;56.892;15.090;2022-10-01T03:53:44;4.80;;;4.45;;
17662;SDS011;8950;56.892;15.090;2022-10-01T03:56:11;4.38;;;3.90;;
17662;SDS011;8950;56.892;15.090;2022-10-01T03:58:39;4.63;;;4.30;;
17662;SDS011;8950;56.892;15.090;2022-10-01T04:01:05;4.80;;;4.47;;
17662;SDS011;8950;56.892;15.090;2022-10-01T04:03:31;4.40;;;4.07;;
17662;SDS011;8950;56.892;15.090;2022-10-01T04:05:58;4.50;;;4.15;;
17662;SDS011;8950;56.892;15.090;2022-10-01T04:08:24;4.30;;;4.00;;
17662;SDS011;8950;56.892;15.090;2022-10-01T04:10:51;4.30;;;4.00;;
17662;SDS011;8950;56.892;15.090;2022-10-01T04:13:17;4.78;;;4.32;;
17662;SDS011;8950;56.892;15.090;2022-10-01T04:15:45;5.07;;;4.68;;
17662;SDS011;8950;56.892;15.090;2022-10-01T04:18:12;4.57;;;4.18;;
17662;SDS011;8950;56.892;15.090;2022-10-01T04:20:40;4.82;;;4.43;;
17662;SDS011;8950;56.892;15.090;2022-10-01T04:23:07;4.28;;;3.90;;
17662;SDS011;8950;56.892;15.090;2022-10-01T04:25:33;4.80;;;4.40;;
17662;SDS011;8950;56.892;15.090;2022-10-01T04:28:01;6.10;;;4.35;;
17662;SDS011;8950;56.892;15.090;2022-10-01T04:30:28;4.28;;;3.97;;
17662;SDS011;8950;56.892;15.090;2022-10-01T04:32:56;4.88;;;4.47;;
17662;SDS011;8950;56.892;15.090;2022-10-01T04:35:23;4.65;;;4.30;;
17662;SDS011;8950;56.892;15.090;2022-10-01T04:37:54;5.00;;;4.30;;
17662;SDS011;8950;56.892;15.090;2022-10-01T04:40:20;4.53;;;4.22;;
17662;SDS011;8950;56.892;15.090;2022-10-01T04:42:47;4.75;;;4.25;;
17662;SDS011;8950;56.892;15.090;2022-10-01T04:45:13;4.88;;;4.47;;
17662;SDS011;8950;56.892;15.090;2022-10-01T04:47:45;4.65;;;4.25;;
17662;SDS011;8950;56.892;15.090;2022-10-01T04:50:13;4.70;;;4.40;;
17662;SDS011;8950;56.892;15.090;2022-10-01T04:52:40;4.78;;;4.22;;
17662;SDS011;8950;56.892;15.090;2022-10-01T04:55:07;4.43;;;4.13;;
17662;SDS011;8950;56.892;15.090;2022-10-01T04:57:33;4.32;;;3.92;;
17662;SDS011;8950;56.892;15.090;2022-10-01T05:00:00;4.35;;;3.95;;
17662;SDS011;8950;56.892;15.090;2022-10-01T05:02:28;4.43;;;4.13;;
17662;SDS011;8950;56.892;15.090;2022-10-01T05:04:56;5.07;;;4.68;;
17662;SDS011;8950;56.892;15.090;2022-10-01T05:07:24;4.20;;;3.90;;
17662;SDS011;8950;56.892;15.090;2022-10-01T05:09:50;4.80;;;4.30;;
17662;SDS011;8950;56.892;15.090;2022-10-01T05:12:17;4.55;;;4.10;;
17662;SDS011;8950;56.892;15.090;2022-10-01T05:14:43;4.30;;;4.00;;
17662;SDS011;8950;56.892;15.090;2022-10-01T05:17:10;4.97;;;4.57;;
17662;SDS011;8950;56.892;15.090;2022-10-01T05:19:36;4.80;;;3.80;;
17662;SDS011;8950;56.892;15.090;2022-10-01T05:22:02;4.47;;;4.07;;
17662;SDS011;8950;56.892;15.090;2022-10-01T05:24:30;4.13;;;3.83;;
17662;SDS011;8950;56.892;15.090;2022-10-01T05:26:56;4.60;;;4.07;;
17662;SDS011;8950;56.892;15.090;2022-10-01T05:29:23;4.72;;;3.85;;
17662;SDS011;8950;56.892;15.090;2022-10-01T05:31:49;4.15;;;3.80;;
17662;SDS011;8950;56.892;15.090;2022-10-01T05:34:16;4.60;;;4.20;;
17662;SDS011;8950;56.892;15.090;2022-10-01T05:36:42;4.50;;;4.10;;
17662;SDS011;8950;56.892;15.090;2022-10-01T05:39:08;4.20;;;3.80;;
17662;SDS011;8950;56.892;15.090;2022-10-01T05:41:37;5.35;;;4.38;;
17662;SDS011;8950;56.892;15.090;2022-10-01T05:44:05;4.68;;;4.28;;
17662;SDS011;8950;56.892;15.090;2022-10-01T05:46:31;4.38;;;3.97;;
17662;SDS011;8950;56.892;15.090;2022-10-01T05:48:58;4.70;;;4.30;;
17662;SDS011;8950;56.892;15.090;2022-10-01T05:51:24;4.60;;;4.10;;
17662;SDS011;8950;56.892;15.090;2022-10-01T05:53:52;4.40;;;4.10;;
17662;SDS011;8950;56.892;15.090;2022-10-01T05:56:18;4.72;;;4.20;;
17662;SDS011;8950;56.892;15.090;2022-10-01T05:58:46;4.18;;;3.88;;
17662;SDS011;8950;56.892;15.090;2022-10-01T06:01:13;4.63;;;4.28;;
17662;SDS011;8950;56.892;15.090;2022-10-01T06:03:39;4.57;;;4.18;;
17662;SDS011;8950;56.892;15.090;2022-10-01T06:06:06;4.75;;;4.35;;
17662;SDS011;8950;56.892;15.090;2022-10-01T06:08:33;4.05;;;3.75;;
17662;SDS011;8950;56.892;15.090;2022-10-01T06:11:01;4.63;;;4.10;;
17662;SDS011;8950;56.892;15.090;2022-10-01T06:13:27;4.32;;;4.03;;
17662;SDS011;8950;56.892;15.090;2022-10-01T06:15:55;4.30;;;4.00;;
17662;SDS011;8950;56.892;15.090;2022-10-01T06:18:22;4.65;;;4.15;;
17662;SDS011;8950;56.892;15.090;2022-10-01T06:20:48;4.72;;;4.10;;
17662;SDS011;8950;56.892;15.090;2022-10-01T06:23:14;4.60;;;4.20;;
17662;SDS011;8950;56.892;15.090;2022-10-01T06:25:41;4.97;;;4.10;;
17662;SDS011;8950;56.892;15.090;2022-10-01T06:28:11;4.20;;;3.80;;
17662;SDS011;8950;56.892;15.090;2022-10-01T06:30:38;4.47;;;4.03;;
17662;SDS011;8950;56.892;15.090;2022-10-01T06:33:07;4.32;;;3.80;;
17662;SDS011;8950;56.892;15.090;2022-10-01T06:35:34;4.40;;;4.07;;
17662;SDS011;8950;56.892;15.090;2022-10-01T06:38:00;4.50;;;4.20;;
17662;SDS011;8950;56.892;15.090;2022-10-01T06:40:27;5.00;;;3.90;;
17662;SDS011;8950;56.892;15.090;2022-10-01T06:42:54;4.18;;;3.83;;
17662;SDS011;8950;56.892;15.090;2022-10-01T06:45:22;4.00;;;3.65;;
17662;SDS011;8950;56.892;15.090;2022-10-01T06:47:52;4.53;;;4.13;;
17662;SDS011;8950;56.892;15.090;2022-10-01T06:50:19;4.82;;;4.15;;
17662;SDS011;8950;56.892;15.090;2022-10-01T06:52:46;4.43;;;4.13;;
17662;SDS011;8950;56.892;15.090;2022-10-01T06:55:15;4.22;;;3.83;;
17662;SDS011;8950;56.892;15.090;2022-10-01T06:57:42;4.47;;;3.67;;
17662;SDS011;8950;56.892;15.090;2022-10-01T07:00:08;3.80;;;3.50;;
17662;SDS011;8950;56.892;15.090;2022-10-01T07:02:35;4.55;;;3.78;;
17662;SDS011;8950;56.892;15.090;2022-10-01T07:05:02;4.30;;;4.00;;
17662;SDS011;8950;56.892;15.090;2022-10-01T07:07:30;4.35;;;4.05;;
17662;SDS011;8950;56.892;15.090;2022-10-01T07:09:57;5.70;;;4.13;;
17662;SDS011;8950;56.892;15.090;2022-10-01T07:12:24;4.18;;;3.88;;
17662;SDS011;8950;56.892;15.090;2022-10-01T07:14:51;4.78;;;3.88;;
17662;SDS011;8950;56.892;15.090;2022-10-01T07:17:17;3.92;;;3.63;;
17662;SDS011;8950;56.892;15.090;2022-10-01T07:19:44;4.03;;;3.65;;
17662;SDS011;8950;56.892;15.090;2022-10-01T07:22:11;3.90;;;3.60;;
17662;SDS011;8950;56.892;15.090;2022-10-01T07:24:39;5.15;;;3.80;;
17662;SDS011;8950;56.892;15.090;2022-10-01T07:27:05;3.95;;;3.65;;
17662;SDS011;8950;56.892;15.090;2022-10-01T07:29:31;5.82;;;3.80;;
17662;SDS011;8950;56.892;15.090;2022-10-01T07:31:58;4.53;;;4.07;;
17662;SDS011;8950;56.892;15.090;2022-10-01T07:34:25;4.20;;;3.88;;
17662;SDS011;8950;56.892;15.090;2022-10-01T07:36:52;4.40;;;3.63;;
17662;SDS011;8950;56.892;15.090;2022-10-01T07:39:19;4.53;;;4.10;;
17662;SDS011;8950;56.892;15.090;2022-10-01T07:41:47;4.15;;;3.72;;
17662;SDS011;8950;56.892;15.090;2022-10-01T07:44:15;3.67;;;3.40;;
17662;SDS011;8950;56.892;15.090;2022-10-01T07:46:41;3.88;;;3.58;;
17662;SDS011;8950;56.892;15.090;2022-10-01T07:49:08;4.65;;;3.55;;
17662;SDS011;8950;56.892;15.090;2022-10-01T07:51:34;4.55;;;4.13;;
17662;SDS011;8950;56.892;15.090;2022-10-01T07:54:01;3.72;;;3.42;;
17662;SDS011;8950;56.892;15.090;2022-10-01T07:56:27;3.97;;;3.67;;
17662;SDS011;8950;56.892;15.090;2022-10-01T07:58:55;3.63;;;3.30;;
17662;SDS011;8950;56.892;15.090;2022-10-01T08:01:22;4.22;;;3.22;;
17662;SDS011;8950;56.892;15.090;2022-10-01T08:03:49;4.00;;;3.22;;
17662;SDS011;8950;56.892;15.090;2022-10-01T08:06:15;3.58;;;3.25;;
17662;SDS011;8950;56.892;15.090;2022-10-01T08:08:42;3.38;;;3.08;;
17662;SDS011;8950;56.892;15.090;2022-10-01T08:11:08;3.55;;;3.25;;
17662;SDS011;8950;56.892;15.090;2022-10-01T08:13:37;4.03;;;3.22;;
17662;SDS011;8950;56.892;15.090;2022-10-01T08:16:05;4.13;;;2.85;;
17662;SDS011;8950;56.892;15.090;2022-10-01T08:18:34;3.63;;;3.33;;
17662;SDS011;8950;56.892;15.090;2022-10-01T08:21:01;4.53;;;3.45;;
17662;SDS011;8950;56.892;15.090;2022-10-01T08:23:28;2.88;;;2.63;;
17662;SDS011;8950;56.892;15.090;2022-10-01T08:25:57;4.53;;;3.75;;
17662;SDS011;8950;56.892;15.090;2022-10-01T08:28:24;3.30;;;3.00;;
17662;SDS011;8950;56.892;15.090;2022-10-01T08:30:50;4.55;;;3.05;;
17662;SDS011;8950;56.892;15.090;2022-10-01T08:33:18;7.85;;;3.83;;
17662;SDS011;8950;56.892;15.090;2022-10-01T08:35:44;4.65;;;3.33;;
17662;SDS011;8950;56.892;15.090;2022-10-01T08:38:11;3.22;;;2.90;;
17662;SDS011;8950;56.892;15.090;2022-10-01T08:40:40;4.25;;;3.42;;
17662;SDS011;8950;56.892;15.090;2022-10-01T08:43:10;4.72;;;3.67;;
17662;SDS011;8950;56.892;15.090;2022-10-01T08:45:39;4.10;;;3.30;;
17662;SDS011;8950;56.892;15.090;2022-10-01T08:48:10;3.83;;;3.42;;
17662;SDS011;8950;56.892;15.090;2022-10-01T08:50:43;4.25;;;3.53;;
17662;SDS011;8950;56.892;15.090;2022-10-01T08:53:13;3.53;;;3.22;;
17662;SDS011;8950;56.892;15.090;2022-10-01T08:55:41;4.13;;;3.78;;
17662;SDS011;8950;56.892;15.090;2022-10-01T08:58:09;5.35;;;3.40;;
17662;SDS011;8950;56.892;15.090;2022-10-01T09:00:37;4.38;;;3.97;;
17662;SDS011;8950;56.892;15.090;2022-10-01T09:03:06;4.75;;;3.58;;
17662;SDS011;8950;56.892;15.090;2022-10-01T09:05:37;3.75;;;3.30;;
17662;SDS011;8950;56.892;15.090;2022-10-01T09:08:08;5.05;;;3.22;;
17662;SDS011;8950;56.892;15.090;2022-10-01T09:10:42;4.07;;;3.58;;
17662;SDS011;8950;56.892;15.090;2022-10-01T09:15:58;5.57;;;4.03;;
17662;SDS011;8950;56.892;15.090;2022-10-01T09:18:29;4.95;;;3.80;;
17662;SDS011;8950;56.892;15.090;2022-10-01T09:20:58;3.95;;;3.65;;
17662;SDS011;8950;56.892;15.090;2022-10-01T09:23:27;4.78;;;4.07;;
17662;SDS011;8950;56.892;15.090;2022-10-01T09:25:54;4.57;;;3.78;;
17662;SDS011;8950;56.892;15.090;2022-10-01T09:28:21;4.45;;;4.05;;
17662;SDS011;8950;56.892;15.090;2022-10-01T09:30:49;5.18;;;4.03;;
17662;SDS011;8950;56.892;15.090;2022-10-01T09:33:19;4.43;;;3.78;;
17662;SDS011;8950;56.892;15.090;2022-10-01T09:35:47;4.20;;;3.78;;
17662;SDS011;8950;56.892;15.090;2022-10-01T09:38:16;5.22;;;4.28;;
17662;SDS011;8950;56.892;15.090;2022-10-01T09:40:48;4.13;;;3.72;;
17662;SDS011;8950;56.892;15.090;2022-10-01T09:43:18;5.53;;;3.40;;
17662;SDS011;8950;56.892;15.090;2022-10-01T09:45:46;4.53;;;3.80;;
17662;SDS011;8950;56.892;15.090;2022-10-01T09:48:14;4.88;;;3.83;;
17662;SDS011;8950;56.892;15.090;2022-10-01T09:50:45;4.50;;;3.70;;
17662;SDS011;8950;56.892;15.090;2022-10-01T09:53:15;6.07;;;3.80;;
17662;SDS011;8950;56.892;15.090;2022-10-01T09:55:43;4.00;;;3.70;;
17662;SDS011;8950;56.892;15.090;2022-10-01T09:58:12;5.57;;;3.72;;
17662;SDS011;8950;56.892;15.090;2022-10-01T10:00:40;3.85;;;3.47;;
17662;SDS011;8950;56.892;15.090;2022-10-01T10:03:07;4.22;;;3.83;;
17662;SDS011;8950;56.892;15.090;2022-10-01T10:05:38;4.85;;;3.40;;
17662;SDS011;8950;56.892;15.090;2022-10-01T10:08:09;4.03;;;3.38;;
17662;SDS011;8950;56.892;15.090;2022-10-01T10:10:36;3.70;;;3.38;;
17662;SDS011;8950;56.892;15.090;2022-10-01T10:13:06;4.28;;;3.05;;
17662;SDS011;8950;56.892;15.090;2022-10-01T10:15:48;3.78;;;3.47;;
17662;SDS011;8950;56.892;15.090;2022-10-01T10:18:15;5.75;;;3.22;;
17662;SDS011;8950;56.892;15.090;2022-10-01T10:20:42;3.20;;;3.00;;
17662;SDS011;8950;56.892;15.090;2022-10-01T10:23:12;6.47;;;3.20;;
17662;SDS011;8950;56.892;15.090;2022-10-01T10:25:40;4.97;;;2.92;;
17662;SDS011;8950;56.892;15.090;2022-10-01T10:28:16;3.47;;;2.83;;
17662;SDS011;8950;56.892;15.090;2022-10-01T10:30:44;3.95;;;3.25;;
17662;SDS011;8950;56.892;15.090;2022-10-01T10:33:12;3.50;;;3.17;;
17662;SDS011;8950;56.892;15.090;2022-10-01T10:35:39;4.93;;;3.20;;
17662;SDS011;8950;56.892;15.090;2022-10-01T10:38:14;4.47;;;3.25;;
17662;SDS011;8950;56.892;15.090;2022-10-01T10:40:41;4.63;;;3.08;;
17662;SDS011;8950;56.892;15.090;2022-10-01T10:43:12;3.53;;;2.70;;
17662;SDS011;8950;56.892;15.090;2022-10-01T10:45:42;3.35;;;3.05;;
17662;SDS011;8950;56.892;15.090;2022-10-01T10:48:13;5.30;;;3.10;;
17662;SDS011;8950;56.892;15.090;2022-10-01T10:50:40;5.00;;;3.20;;
17662;SDS011;8950;56.892;15.090;2022-10-01T10:53:18;3.92;;;3.53;;
17662;SDS011;8950;56.892;15.090;2022-10-01T10:55:55;4.60;;;3.28;;
17662;SDS011;8950;56.892;15.090;2022-10-01T10:58:24;6.13;;;3.40;;
17662;SDS011;8950;56.892;15.090;2022-10-01T11:00:51;5.53;;;3.15;;
17662;SDS011;8950;56.892;15.090;2022-10-01T11:03:20;3.47;;;3.08;;
17662;SDS011;8950;56.892;15.090;2022-10-01T11:05:47;4.63;;;3.30;;
17662;SDS011;8950;56.892;15.090;2022-10-01T11:08:17;3.80;;;3.28;;
17662;SDS011;8950;56.892;15.090;2022-10-01T11:10:46;3.75;;;3.20;;
17662;SDS011;8950;56.892;15.090;2022-10-01T11:13:27;3.92;;;3.20;;
17662;SDS011;8950;56.892;15.090;2022-10-01T11:16:11;4.38;;;3.00;;
17662;SDS011;8950;56.892;15.090;2022-10-01T11:18:47;4.50;;;3.67;;
17662;SDS011;8950;56.892;15.090;2022-10-01T11:24:04;3.97;;;3.20;;
17662;SDS011;8950;56.892;15.090;2022-10-01T11:26:35;3.58;;;3.10;;
17662;SDS011;8950;56.892;15.090;2022-10-01T11:29:09;3.40;;;3.10;;
17662;SDS011;8950;56.892;15.090;2022-10-01T11:31:42;3.28;;;2.88;;
17662;SDS011;8950;56.892;15.090;2022-10-01T11:34:16;3.72;;;3.00;;
17662;SDS011;8950;56.892;15.090;2022-10-01T11:36:47;5.13;;;2.90;;
17662;SDS011;8950;56.892;15.090;2022-10-01T11:39:17;5.97;;;2.70;;
17662;SDS011;8950;56.892;15.090;2022-10-01T11:41:45;3.65;;;2.88;;
17662;SDS011;8950;56.892;15.090;2022-10-01T11:44:15;2.92;;;2.53;;
17662;SDS011;8950;56.892;15.090;2022-10-01T11:46:46;3.83;;;2.80;;
17662;SDS011;8950;56.892;15.090;2022-10-01T11:49:19;3.33;;;2.63;;
17662;SDS011;8950;56.892;15.090;2022-10-01T11:51:47;3.63;;;2.33;;
17662;SDS011;8950;56.892;15.090;2022-10-01T11:54:16;3.83;;;2.72;;
17662;SDS011;8950;56.892;15.090;2022-10-01T11:56:46;4.72;;;2.97;;
17662;SDS011;8950;56.892;15.090;2022-10-01T11:59:33;3.13;;;2.70;;
17662;SDS011;8950;56.892;15.090;2022-10-01T12:02:03;3.08;;;2.75;;
17662;SDS011;8950;56.892;15.090;2022-10-01T12:04:34;6.65;;;2.90;;
17662;SDS011;8950;56.892;15.090;2022-10-01T12:07:03;4.72;;;2.97;;
17662;SDS011;8950;56.892;15.090;2022-10-01T12:09:33;3.15;;;2.85;;
17662;SDS011;8950;56.892;15.090;2022-10-01T12:12:02;3.85;;;2.90;;
17662;SDS011;8950;56.892;15.090;2022-10-01T12:14:32;2.85;;;2.55;;
17662;SDS011;8950;56.892;15.090;2022-10-01T12:17:03;3.30;;;2.30;;
17662;SDS011;8950;56.892;15.090;2022-10-01T12:19:36;2.72;;;2.53;;
17662;SDS011;8950;56.892;15.090;2022-10-01T12:22:05;4.45;;;2.50;;
17662;SDS011;8950;56.892;15.090;2022-10-01T12:24:37;3.50;;;3.03;;
17662;SDS011;8950;56.892;15.090;2022-10-01T12:27:08;4.40;;;2.63;;
17662;SDS011;8950;56.892;15.090;2022-10-01T12:29:39;3.22;;;2.70;;
17662;SDS011;8950;56.892;15.090;2022-10-01T12:32:11;3.05;;;2.67;;
17662;SDS011;8950;56.892;15.090;2022-10-01T12:34:44;3.15;;;2.67;;
17662;SDS011;8950;56.892;15.090;2022-10-01T12:37:14;3.13;;;2.40;;
17662;SDS011;8950;56.892;15.090;2022-10-01T12:39:44;3.70;;;2.65;;
17662;SDS011;8950;56.892;15.090;2022-10-01T12:42:17;4.47;;;3.00;;
17662;SDS011;8950;56.892;15.090;2022-10-01T12:44:52;4.18;;;2.83;;
17662;SDS011;8950;56.892;15.090;2022-10-01T12:47:27;2.92;;;2.53;;
17662;SDS011;8950;56.892;15.090;2022-10-01T12:50:01;3.10;;;2.45;;
17662;SDS011;8950;56.892;15.090;2022-10-01T12:52:32;3.70;;;2.58;;
17662;SDS011;8950;56.892;15.090;2022-10-01T12:55:12;4.35;;;2.53;;
17662;SDS011;8950;56.892;15.090;2022-10-01T12:57:42;3.80;;;3.03;;
17662;SDS011;8950;56.892;15.090;2022-10-01T13:00:11;4.78;;;2.60;;
17662;SDS011;8950;56.892;15.090;2022-10-01T13:03:02;3.53;;;2.65;;
17662;SDS011;8950;56.892;15.090;2022-10-01T13:05:38;2.83;;;2.50;;
17662;SDS011;8950;56.892;15.090;2022-10-01T13:08:13;3.67;;;2.63;;
17662;SDS011;8950;56.892;15.090;2022-10-01T13:10:46;2.63;;;2.30;;
17662;SDS011;8950;56.892;15.090;2022-10-01T13:13:13;3.28;;;2.40;;
17662;SDS011;8950;56.892;15.090;2022-10-01T13:15:43;3.10;;;2.22;;
17662;SDS011;8950;56.892;15.090;2022-10-01T13:18:14;3.63;;;2.80;;
17662;SDS011;8950;56.892;15.090;2022-10-01T13:20:46;3.17;;;2.60;;
17662;SDS011;8950;56.892;15.090;2022-10-01T13:23:19;4.95;;;2.90;;
17662;SDS011;8950;56.892;15.090;2022-10-01T13:25:47;4.60;;;2.65;;
17662;SDS011;8950;56.892;15.090;2022-10-01T13:28:17;3.22;;;2.63;;
17662;SDS011;8950;56.892;15.090;2022-10-01T13:30:49;3.65;;;2.83;;
17662;SDS011;8950;56.892;15.090;2022-10-01T13:33:20;3.13;;;2.35;;
17662;SDS011;8950;56.892;15.090;2022-10-01T13:35:53;3.28;;;2.90;;
17662;SDS011;8950;56.892;15.090;2022-10-01T13:41:05;3.90;;;2.80;;
17662;SDS011;8950;56.892;15.090;2022-10-01T13:43:32;3.20;;;2.70;;
17662;SDS011;8950;56.892;15.090;2022-10-01T13:46:03;3.20;;;2.63;;
17662;SDS011;8950;56.892;15.090;2022-10-01T13:48:31;3.88;;;2.95;;
17662;SDS011;8950;56.892;15.090;2022-10-01T13:51:01;4.63;;;2.80;;
17662;SDS011;8950;56.892;15.090;2022-10-01T13:53:29;2.42;;;2.22;;
17662;SDS011;8950;56.892;15.090;2022-10-01T13:55:57;3.45;;;2.65;;
17662;SDS011;8950;56.892;15.090;2022-10-01T13:58:30;2.60;;;2.40;;
17662;SDS011;8950;56.892;15.090;2022-10-01T14:00:58;3.58;;;2.85;;
17662;SDS011;8950;56.892;15.090;2022-10-01T14:03:26;3.28;;;2.80;;
17662;SDS011;8950;56.892;15.090;2022-10-01T14:05:57;4.68;;;2.95;;
17662;SDS011;8950;56.892;15.090;2022-10-01T14:08:27;3.33;;;3.00;;
17662;SDS011;8950;56.892;15.090;2022-10-01T14:10:56;4.75;;;2.92;;
17662;SDS011;8950;56.892;15.090;2022-10-01T14:13:42;4.78;;;3.20;;
17662;SDS011;8950;56.892;15.090;2022-10-01T14:16:28;4.32;;;3.72;;
17662;SDS011;8950;56.892;15.090;2022-10-01T14:18:55;4.50;;;3.35;;
17662;SDS011;8950;56.892;15.090;2022-10-01T14:21:29;4.18;;;3.50;;
17662;SDS011;8950;56.892;15.090;2022-10-01T14:24:04;4.78;;;3.50;;
17662;SDS011;8950;56.892;15.090;2022-10-01T14:26:38;3.92;;;3.28;;
17662;SDS011;8950;56.892;15.090;2022-10-01T14:29:11;3.85;;;3.53;;
17662;SDS011;8950;56.892;15.090;2022-10-01T14:31:41;5.13;;;3.67;;
17662;SDS011;8950;56.892;15.090;2022-10-01T14:34:14;4.53;;;3.90;;
17662;SDS011;8950;56.892;15.090;2022-10-01T14:36:46;5.40;;;3.65;;
17662;SDS011;8950;56.892;15.090;2022-10-01T14:39:15;3.90;;;3.47;;
17662;SDS011;8950;56.892;15.090;2022-10-01T14:41:42;5.07;;;3.88;;
17662;SDS011;8950;56.892;15.090;2022-10-01T14:44:19;4.15;;;3.75;;
17662;SDS011;8950;56.892;15.090;2022-10-01T14:46:46;4.38;;;3.90;;
17662;SDS011;8950;56.892;15.090;2022-10-01T14:49:20;3.92;;;3.60;;
17662;SDS011;8950;56.892;15.090;2022-10-01T14:51:48;4.43;;;3.90;;
17662;SDS011;8950;56.892;15.090;2022-10-01T14:54:16;4.72;;;4.25;;
17662;SDS011;8950;56.892;15.090;2022-10-01T14:56:42;4.40;;;3.97;;
17662;SDS011;8950;56.892;15.090;2022-10-01T14:59:10;4.88;;;4.47;;
17662;SDS011;8950;56.892;15.090;2022-10-01T15:01:52;9.52;;;4.78;;
17662;SDS011;8950;56.892;15.090;2022-10-01T15:04:19;4.30;;;3.90;;
17662;SDS011;8950;56.892;15.090;2022-10-01T15:06:46;4.63;;;4.22;;